sensor_id;sensor_type;location;lat;lon;timestamp;P1;durP1;ratioP1;P2;durP2;ratioP2
7957;SDS011;4024;52.172;5.378;2023-08-07T00:00:04;7.40;;;2.67;;
7957;SDS011;4024;52.172;5.378;2023-08-07T00:02:34;8.23;;;2.67;;
7957;SDS011;4024;52.172;5.378;2023-08-07T00:04:59;9.37;;;2.67;;
7957;SDS011;4024;52.172;5.378;2023-08-07T00:07:27;8.27;;;2.93;;
7957;SDS011;4024;52.172;5.378;2023-08-07T00:09:52;6.23;;;2.60;;
7957;SDS011;4024;52.172;5.378;2023-08-07T00:12:18;6.00;;;2.30;;
7957;SDS011;4024;52.172;5.378;2023-08-07T00:14:43;6.90;;;2.93;;
7957;SDS011;4024;52.172;5.378;2023-08-07T00:17:11;7.80;;;2.80;;
7957;SDS011;4024;52.172;5.378;2023-08-07T00:19:37;5.00;;;2.43;;
7957;SDS011;4024;52.172;5.378;2023-08-07T00:22:03;7.07;;;2.50;;
7957;SDS011;4024;52.172;5.378;2023-08-07T00:24:29;5.47;;;2.70;;
7957;SDS011;4024;52.172;5.378;2023-08-07T00:26:54;7.67;;;2.80;;
7957;SDS011;4024;52.172;5.378;2023-08-07T00:29:20;7.13;;;3.30;;
7957;SDS011;4024;52.172;5.378;2023-08-07T00:31:45;5.57;;;2.43;;
7957;SDS011;4024;52.172;5.378;2023-08-07T00:34:11;8.40;;;2.80;;
7957;SDS011;4024;52.172;5.378;2023-08-07T00:36:37;9.23;;;2.77;;
7957;SDS011;4024;52.172;5.378;2023-08-07T00:39:02;8.83;;;3.27;;
7957;SDS011;4024;52.172;5.378;2023-08-07T00:41:28;11.77;;;3.23;;
7957;SDS011;4024;52.172;5.378;2023-08-07T00:43:54;8.57;;;3.17;;
7957;SDS011;4024;52.172;5.378;2023-08-07T00:46:20;12.67;;;2.93;;
7957;SDS011;4024;52.172;5.378;2023-08-07T00:48:46;9.10;;;3.27;;
7957;SDS011;4024;52.172;5.378;2023-08-07T00:51:12;8.10;;;3.13;;
7957;SDS011;4024;52.172;5.378;2023-08-07T00:53:37;9.77;;;3.10;;
7957;SDS011;4024;52.172;5.378;2023-08-07T00:56:04;6.30;;;3.07;;
7957;SDS011;4024;52.172;5.378;2023-08-07T00:58:30;9.97;;;3.50;;
7957;SDS011;4024;52.172;5.378;2023-08-07T01:00:57;7.73;;;3.33;;
7957;SDS011;4024;52.172;5.378;2023-08-07T01:03:23;7.90;;;3.40;;
7957;SDS011;4024;52.172;5.378;2023-08-07T01:05:48;8.73;;;3.60;;
7957;SDS011;4024;52.172;5.378;2023-08-07T01:08:14;8.03;;;3.50;;
7957;SDS011;4024;52.172;5.378;2023-08-07T01:11:03;8.10;;;3.27;;
7957;SDS011;4024;52.172;5.378;2023-08-07T01:16:18;10.43;;;3.73;;
7957;SDS011;4024;52.172;5.378;2023-08-07T01:18:49;13.50;;;3.63;;
7957;SDS011;4024;52.172;5.378;2023-08-07T01:21:18;13.57;;;4.00;;
7957;SDS011;4024;52.172;5.378;2023-08-07T01:23:47;10.33;;;3.93;;
7957;SDS011;4024;52.172;5.378;2023-08-07T01:26:14;9.40;;;3.83;;
7957;SDS011;4024;52.172;5.378;2023-08-07T01:28:42;7.77;;;3.70;;
7957;SDS011;4024;52.172;5.378;2023-08-07T01:31:14;9.67;;;3.80;;
7957;SDS011;4024;52.172;5.378;2023-08-07T01:33:47;9.73;;;4.13;;
7957;SDS011;4024;52.172;5.378;2023-08-07T01:36:21;14.10;;;4.03;;
7957;SDS011;4024;52.172;5.378;2023-08-07T01:38:50;12.93;;;4.20;;
7957;SDS011;4024;52.172;5.378;2023-08-07T01:41:17;11.87;;;3.93;;
7957;SDS011;4024;52.172;5.378;2023-08-07T01:43:43;8.23;;;3.60;;
7957;SDS011;4024;52.172;5.378;2023-08-07T01:46:10;12.10;;;3.93;;
7957;SDS011;4024;52.172;5.378;2023-08-07T01:48:35;15.37;;;3.83;;
7957;SDS011;4024;52.172;5.378;2023-08-07T01:51:01;13.73;;;4.17;;
7957;SDS011;4024;52.172;5.378;2023-08-07T01:53:27;11.83;;;3.60;;
7957;SDS011;4024;52.172;5.378;2023-08-07T01:55:52;7.17;;;3.63;;
7957;SDS011;4024;52.172;5.378;2023-08-07T01:58:18;10.10;;;3.73;;
7957;SDS011;4024;52.172;5.378;2023-08-07T02:00:43;8.83;;;3.50;;
7957;SDS011;4024;52.172;5.378;2023-08-07T02:03:09;7.77;;;4.00;;
7957;SDS011;4024;52.172;5.378;2023-08-07T02:05:34;9.23;;;3.70;;
7957;SDS011;4024;52.172;5.378;2023-08-07T02:08:00;8.60;;;3.63;;
7957;SDS011;4024;52.172;5.378;2023-08-07T02:10:25;10.43;;;3.90;;
7957;SDS011;4024;52.172;5.378;2023-08-07T02:12:51;10.73;;;3.57;;
7957;SDS011;4024;52.172;5.378;2023-08-07T02:15:17;14.93;;;3.60;;
7957;SDS011;4024;52.172;5.378;2023-08-07T02:17:42;7.00;;;3.50;;
7957;SDS011;4024;52.172;5.378;2023-08-07T02:20:08;8.97;;;3.70;;
7957;SDS011;4024;52.172;5.378;2023-08-07T02:22:34;8.37;;;3.97;;
7957;SDS011;4024;52.172;5.378;2023-08-07T02:25:00;8.33;;;3.50;;
7957;SDS011;4024;52.172;5.378;2023-08-07T02:27:25;10.67;;;4.03;;
7957;SDS011;4024;52.172;5.378;2023-08-07T02:29:51;11.00;;;4.17;;
7957;SDS011;4024;52.172;5.378;2023-08-07T02:32:16;10.13;;;4.10;;
7957;SDS011;4024;52.172;5.378;2023-08-07T02:34:42;7.80;;;3.23;;
7957;SDS011;4024;52.172;5.378;2023-08-07T02:37:09;11.07;;;3.70;;
7957;SDS011;4024;52.172;5.378;2023-08-07T02:39:34;11.30;;;3.77;;
7957;SDS011;4024;52.172;5.378;2023-08-07T02:42:00;11.10;;;4.00;;
7957;SDS011;4024;52.172;5.378;2023-08-07T02:44:25;5.40;;;3.13;;
7957;SDS011;4024;52.172;5.378;2023-08-07T02:46:51;7.07;;;3.70;;
7957;SDS011;4024;52.172;5.378;2023-08-07T02:49:16;8.90;;;3.83;;
7957;SDS011;4024;52.172;5.378;2023-08-07T02:51:42;12.03;;;3.93;;
7957;SDS011;4024;52.172;5.378;2023-08-07T02:54:08;7.63;;;3.23;;
7957;SDS011;4024;52.172;5.378;2023-08-07T02:56:33;13.07;;;4.40;;
7957;SDS011;4024;52.172;5.378;2023-08-07T02:58:59;8.03;;;3.30;;
7957;SDS011;4024;52.172;5.378;2023-08-07T03:01:26;9.57;;;3.40;;
7957;SDS011;4024;52.172;5.378;2023-08-07T03:03:52;9.40;;;3.80;;
7957;SDS011;4024;52.172;5.378;2023-08-07T03:06:18;8.37;;;3.40;;
7957;SDS011;4024;52.172;5.378;2023-08-07T03:08:43;7.33;;;3.30;;
7957;SDS011;4024;52.172;5.378;2023-08-07T03:11:09;7.73;;;3.37;;
7957;SDS011;4024;52.172;5.378;2023-08-07T03:13:34;8.53;;;3.20;;
7957;SDS011;4024;52.172;5.378;2023-08-07T03:16:04;8.83;;;3.20;;
7957;SDS011;4024;52.172;5.378;2023-08-07T03:18:31;8.03;;;3.73;;
7957;SDS011;4024;52.172;5.378;2023-08-07T03:20:57;6.47;;;3.33;;
7957;SDS011;4024;52.172;5.378;2023-08-07T03:23:23;7.50;;;3.20;;
7957;SDS011;4024;52.172;5.378;2023-08-07T03:25:50;6.03;;;2.93;;
7957;SDS011;4024;52.172;5.378;2023-08-07T03:28:26;6.37;;;2.77;;
7957;SDS011;4024;52.172;5.378;2023-08-07T03:30:51;4.27;;;3.00;;
7957;SDS011;4024;52.172;5.378;2023-08-07T03:33:17;5.37;;;2.70;;
7957;SDS011;4024;52.172;5.378;2023-08-07T03:35:42;5.27;;;2.30;;
7957;SDS011;4024;52.172;5.378;2023-08-07T03:38:08;3.50;;;2.47;;
7957;SDS011;4024;52.172;5.378;2023-08-07T03:40:33;7.50;;;2.50;;
7957;SDS011;4024;52.172;5.378;2023-08-07T03:42:59;4.50;;;2.60;;
7957;SDS011;4024;52.172;5.378;2023-08-07T03:45:24;6.13;;;2.50;;
7957;SDS011;4024;52.172;5.378;2023-08-07T03:47:50;5.43;;;2.90;;
7957;SDS011;4024;52.172;5.378;2023-08-07T03:50:15;6.80;;;2.93;;
7957;SDS011;4024;52.172;5.378;2023-08-07T03:52:41;5.87;;;3.13;;
7957;SDS011;4024;52.172;5.378;2023-08-07T03:55:07;8.43;;;2.70;;
7957;SDS011;4024;52.172;5.378;2023-08-07T03:57:32;8.47;;;3.23;;
7957;SDS011;4024;52.172;5.378;2023-08-07T03:59:58;8.33;;;3.10;;
7957;SDS011;4024;52.172;5.378;2023-08-07T04:02:24;8.43;;;2.70;;
7957;SDS011;4024;52.172;5.378;2023-08-07T04:04:50;10.00;;;3.07;;
7957;SDS011;4024;52.172;5.378;2023-08-07T04:07:16;7.50;;;3.10;;
7957;SDS011;4024;52.172;5.378;2023-08-07T04:09:41;7.77;;;2.80;;
7957;SDS011;4024;52.172;5.378;2023-08-07T04:12:07;7.93;;;3.37;;
7957;SDS011;4024;52.172;5.378;2023-08-07T04:14:32;8.60;;;3.70;;
7957;SDS011;4024;52.172;5.378;2023-08-07T04:16:58;4.53;;;2.83;;
7957;SDS011;4024;52.172;5.378;2023-08-07T04:19:25;9.10;;;3.33;;
7957;SDS011;4024;52.172;5.378;2023-08-07T04:21:51;8.03;;;3.47;;
7957;SDS011;4024;52.172;5.378;2023-08-07T04:24:17;9.40;;;3.47;;
7957;SDS011;4024;52.172;5.378;2023-08-07T04:26:42;7.70;;;3.80;;
7957;SDS011;4024;52.172;5.378;2023-08-07T04:29:08;8.53;;;3.67;;
7957;SDS011;4024;52.172;5.378;2023-08-07T04:31:33;10.73;;;3.30;;
7957;SDS011;4024;52.172;5.378;2023-08-07T04:33:59;6.30;;;3.67;;
7957;SDS011;4024;52.172;5.378;2023-08-07T04:36:24;9.23;;;3.97;;
7957;SDS011;4024;52.172;5.378;2023-08-07T04:38:50;8.67;;;3.40;;
7957;SDS011;4024;52.172;5.378;2023-08-07T04:41:16;8.00;;;3.70;;
7957;SDS011;4024;52.172;5.378;2023-08-07T04:43:41;10.60;;;4.53;;
7957;SDS011;4024;52.172;5.378;2023-08-07T04:46:10;9.60;;;3.63;;
7957;SDS011;4024;52.172;5.378;2023-08-07T04:48:37;6.47;;;3.33;;
7957;SDS011;4024;52.172;5.378;2023-08-07T04:51:02;9.00;;;3.90;;
7957;SDS011;4024;52.172;5.378;2023-08-07T04:53:28;7.07;;;3.63;;
7957;SDS011;4024;52.172;5.378;2023-08-07T04:55:53;6.67;;;3.97;;
7957;SDS011;4024;52.172;5.378;2023-08-07T04:58:19;8.10;;;4.17;;
7957;SDS011;4024;52.172;5.378;2023-08-07T05:00:45;11.00;;;4.17;;
7957;SDS011;4024;52.172;5.378;2023-08-07T05:03:10;12.73;;;4.03;;
7957;SDS011;4024;52.172;5.378;2023-08-07T05:05:36;6.63;;;3.40;;
7957;SDS011;4024;52.172;5.378;2023-08-07T05:08:01;7.87;;;4.03;;
7957;SDS011;4024;52.172;5.378;2023-08-07T05:10:27;9.33;;;4.00;;
7957;SDS011;4024;52.172;5.378;2023-08-07T05:12:53;8.30;;;3.60;;
7957;SDS011;4024;52.172;5.378;2023-08-07T05:15:22;9.73;;;3.60;;
7957;SDS011;4024;52.172;5.378;2023-08-07T05:17:48;10.17;;;3.77;;
7957;SDS011;4024;52.172;5.378;2023-08-07T05:20:13;6.87;;;3.30;;
7957;SDS011;4024;52.172;5.378;2023-08-07T05:22:39;8.57;;;3.50;;
7957;SDS011;4024;52.172;5.378;2023-08-07T05:25:04;7.27;;;3.80;;
7957;SDS011;4024;52.172;5.378;2023-08-07T05:27:30;8.63;;;3.40;;
7957;SDS011;4024;52.172;5.378;2023-08-07T05:29:56;5.67;;;3.33;;
7957;SDS011;4024;52.172;5.378;2023-08-07T05:32:21;9.27;;;3.57;;
7957;SDS011;4024;52.172;5.378;2023-08-07T05:34:47;7.37;;;3.70;;
7957;SDS011;4024;52.172;5.378;2023-08-07T05:37:12;8.87;;;3.97;;
7957;SDS011;4024;52.172;5.378;2023-08-07T05:39:38;12.93;;;3.80;;
7957;SDS011;4024;52.172;5.378;2023-08-07T05:42:04;8.37;;;3.50;;
7957;SDS011;4024;52.172;5.378;2023-08-07T05:44:30;7.87;;;3.77;;
7957;SDS011;4024;52.172;5.378;2023-08-07T05:46:55;7.43;;;3.83;;
7957;SDS011;4024;52.172;5.378;2023-08-07T05:49:21;7.87;;;4.10;;
7957;SDS011;4024;52.172;5.378;2023-08-07T05:51:47;7.90;;;3.50;;
7957;SDS011;4024;52.172;5.378;2023-08-07T05:54:12;7.47;;;3.67;;
7957;SDS011;4024;52.172;5.378;2023-08-07T05:56:38;9.47;;;3.83;;
7957;SDS011;4024;52.172;5.378;2023-08-07T05:59:03;7.90;;;3.67;;
7957;SDS011;4024;52.172;5.378;2023-08-07T06:01:29;8.03;;;4.27;;
7957;SDS011;4024;52.172;5.378;2023-08-07T06:03:56;6.97;;;3.97;;
7957;SDS011;4024;52.172;5.378;2023-08-07T06:06:23;14.13;;;4.03;;
7957;SDS011;4024;52.172;5.378;2023-08-07T06:08:50;9.57;;;3.70;;
7957;SDS011;4024;52.172;5.378;2023-08-07T06:11:16;11.27;;;3.80;;
7957;SDS011;4024;52.172;5.378;2023-08-07T06:13:42;9.13;;;4.30;;
7957;SDS011;4024;52.172;5.378;2023-08-07T06:16:07;9.73;;;4.00;;
7957;SDS011;4024;52.172;5.378;2023-08-07T06:18:33;17.27;;;4.47;;
7957;SDS011;4024;52.172;5.378;2023-08-07T06:20:59;11.27;;;4.57;;
7957;SDS011;4024;52.172;5.378;2023-08-07T06:23:25;14.13;;;4.53;;
7957;SDS011;4024;52.172;5.378;2023-08-07T06:25:50;12.80;;;3.97;;
7957;SDS011;4024;52.172;5.378;2023-08-07T06:28:16;11.37;;;3.87;;
7957;SDS011;4024;52.172;5.378;2023-08-07T06:30:41;6.63;;;3.40;;
7957;SDS011;4024;52.172;5.378;2023-08-07T06:33:07;9.20;;;4.07;;
7957;SDS011;4024;52.172;5.378;2023-08-07T06:35:39;13.33;;;3.77;;
7957;SDS011;4024;52.172;5.378;2023-08-07T06:38:05;11.27;;;4.10;;
7957;SDS011;4024;52.172;5.378;2023-08-07T06:40:31;13.60;;;4.30;;
7957;SDS011;4024;52.172;5.378;2023-08-07T06:42:56;8.73;;;3.93;;
7957;SDS011;4024;52.172;5.378;2023-08-07T06:45:22;11.83;;;4.73;;
7957;SDS011;4024;52.172;5.378;2023-08-07T06:47:48;10.83;;;4.13;;
7957;SDS011;4024;52.172;5.378;2023-08-07T06:50:13;14.77;;;4.60;;
7957;SDS011;4024;52.172;5.378;2023-08-07T06:52:39;9.93;;;4.33;;
7957;SDS011;4024;52.172;5.378;2023-08-07T06:55:05;9.63;;;3.93;;
7957;SDS011;4024;52.172;5.378;2023-08-07T06:57:31;13.53;;;4.23;;
7957;SDS011;4024;52.172;5.378;2023-08-07T06:59:57;14.73;;;4.23;;
7957;SDS011;4024;52.172;5.378;2023-08-07T07:02:23;11.10;;;4.67;;
7957;SDS011;4024;52.172;5.378;2023-08-07T07:04:48;8.50;;;4.07;;
7957;SDS011;4024;52.172;5.378;2023-08-07T07:07:14;8.83;;;3.63;;
7957;SDS011;4024;52.172;5.378;2023-08-07T07:09:39;11.67;;;4.57;;
7957;SDS011;4024;52.172;5.378;2023-08-07T07:12:05;11.63;;;3.90;;
7957;SDS011;4024;52.172;5.378;2023-08-07T07:14:32;8.87;;;4.00;;
7957;SDS011;4024;52.172;5.378;2023-08-07T07:16:58;9.07;;;4.27;;
7957;SDS011;4024;52.172;5.378;2023-08-07T07:19:24;11.70;;;4.23;;
7957;SDS011;4024;52.172;5.378;2023-08-07T07:21:50;11.63;;;4.57;;
7957;SDS011;4024;52.172;5.378;2023-08-07T07:24:15;10.37;;;4.20;;
7957;SDS011;4024;52.172;5.378;2023-08-07T07:26:41;8.67;;;4.07;;
7957;SDS011;4024;52.172;5.378;2023-08-07T07:29:07;9.00;;;4.40;;
7957;SDS011;4024;52.172;5.378;2023-08-07T07:31:32;7.00;;;4.37;;
7957;SDS011;4024;52.172;5.378;2023-08-07T07:33:58;10.70;;;4.70;;
7957;SDS011;4024;52.172;5.378;2023-08-07T07:36:23;10.03;;;4.53;;
7957;SDS011;4024;52.172;5.378;2023-08-07T07:38:49;9.27;;;4.10;;
7957;SDS011;4024;52.172;5.378;2023-08-07T07:41:15;11.70;;;4.40;;
7957;SDS011;4024;52.172;5.378;2023-08-07T07:43:40;6.60;;;3.93;;
7957;SDS011;4024;52.172;5.378;2023-08-07T07:46:06;10.03;;;4.30;;
7957;SDS011;4024;52.172;5.378;2023-08-07T07:48:32;11.73;;;4.53;;
7957;SDS011;4024;52.172;5.378;2023-08-07T07:51:01;9.90;;;4.30;;
7957;SDS011;4024;52.172;5.378;2023-08-07T07:53:27;7.77;;;4.30;;
7957;SDS011;4024;52.172;5.378;2023-08-07T07:55:53;8.17;;;4.00;;
7957;SDS011;4024;52.172;5.378;2023-08-07T07:58:19;12.83;;;4.57;;
7957;SDS011;4024;52.172;5.378;2023-08-07T08:00:45;7.43;;;4.03;;
7957;SDS011;4024;52.172;5.378;2023-08-07T08:03:11;13.70;;;4.73;;
7957;SDS011;4024;52.172;5.378;2023-08-07T08:05:37;18.63;;;4.90;;
7957;SDS011;4024;52.172;5.378;2023-08-07T08:08:03;9.83;;;4.37;;
7957;SDS011;4024;52.172;5.378;2023-08-07T08:10:30;12.40;;;4.27;;
7957;SDS011;4024;52.172;5.378;2023-08-07T08:12:55;14.93;;;4.33;;
7957;SDS011;4024;52.172;5.378;2023-08-07T08:15:21;9.40;;;4.10;;
7957;SDS011;4024;52.172;5.378;2023-08-07T08:17:47;10.90;;;3.83;;
7957;SDS011;4024;52.172;5.378;2023-08-07T08:20:13;11.80;;;4.03;;
7957;SDS011;4024;52.172;5.378;2023-08-07T08:22:45;14.00;;;4.63;;
7957;SDS011;4024;52.172;5.378;2023-08-07T08:25:11;12.50;;;4.20;;
7957;SDS011;4024;52.172;5.378;2023-08-07T08:27:38;9.80;;;3.90;;
7957;SDS011;4024;52.172;5.378;2023-08-07T08:30:04;14.70;;;3.83;;
7957;SDS011;4024;52.172;5.378;2023-08-07T08:32:30;10.73;;;4.20;;
7957;SDS011;4024;52.172;5.378;2023-08-07T08:34:56;7.23;;;3.47;;
7957;SDS011;4024;52.172;5.378;2023-08-07T08:37:22;11.83;;;4.20;;
7957;SDS011;4024;52.172;5.378;2023-08-07T08:39:47;9.20;;;4.60;;
7957;SDS011;4024;52.172;5.378;2023-08-07T08:42:13;11.77;;;3.83;;
7957;SDS011;4024;52.172;5.378;2023-08-07T08:44:40;9.83;;;4.40;;
7957;SDS011;4024;52.172;5.378;2023-08-07T08:47:13;6.93;;;3.67;;
7957;SDS011;4024;52.172;5.378;2023-08-07T08:49:47;13.67;;;4.10;;
7957;SDS011;4024;52.172;5.378;2023-08-07T08:52:16;10.40;;;3.90;;
7957;SDS011;4024;52.172;5.378;2023-08-07T08:54:42;8.17;;;3.80;;
7957;SDS011;4024;52.172;5.378;2023-08-07T08:57:09;12.27;;;3.70;;
7957;SDS011;4024;52.172;5.378;2023-08-07T08:59:35;11.83;;;4.03;;
7957;SDS011;4024;52.172;5.378;2023-08-07T09:02:01;7.73;;;3.80;;
7957;SDS011;4024;52.172;5.378;2023-08-07T09:04:27;9.67;;;3.60;;
7957;SDS011;4024;52.172;5.378;2023-08-07T09:06:52;10.90;;;3.77;;
7957;SDS011;4024;52.172;5.378;2023-08-07T09:09:19;10.90;;;3.73;;
7957;SDS011;4024;52.172;5.378;2023-08-07T09:11:46;8.73;;;3.97;;
7957;SDS011;4024;52.172;5.378;2023-08-07T09:14:17;11.07;;;3.80;;
7957;SDS011;4024;52.172;5.378;2023-08-07T09:16:47;10.07;;;3.40;;
7957;SDS011;4024;52.172;5.378;2023-08-07T09:19:14;6.00;;;3.60;;
7957;SDS011;4024;52.172;5.378;2023-08-07T09:21:40;9.77;;;3.20;;
7957;SDS011;4024;52.172;5.378;2023-08-07T09:24:05;9.57;;;3.63;;
7957;SDS011;4024;52.172;5.378;2023-08-07T09:26:32;9.63;;;4.40;;
7957;SDS011;4024;52.172;5.378;2023-08-07T09:29:00;10.10;;;4.10;;
7957;SDS011;4024;52.172;5.378;2023-08-07T09:31:27;7.13;;;3.37;;
7957;SDS011;4024;52.172;5.378;2023-08-07T09:33:55;7.33;;;2.83;;
7957;SDS011;4024;52.172;5.378;2023-08-07T09:36:29;8.20;;;3.90;;
7957;SDS011;4024;52.172;5.378;2023-08-07T09:38:55;11.60;;;4.17;;
7957;SDS011;4024;52.172;5.378;2023-08-07T09:41:20;12.37;;;3.60;;
7957;SDS011;4024;52.172;5.378;2023-08-07T09:43:47;7.97;;;3.77;;
7957;SDS011;4024;52.172;5.378;2023-08-07T09:46:12;10.10;;;3.70;;
7957;SDS011;4024;52.172;5.378;2023-08-07T09:48:41;7.83;;;3.33;;
7957;SDS011;4024;52.172;5.378;2023-08-07T09:51:08;9.90;;;3.77;;
7957;SDS011;4024;52.172;5.378;2023-08-07T09:53:34;9.80;;;3.60;;
7957;SDS011;4024;52.172;5.378;2023-08-07T09:56:01;6.87;;;3.47;;
7957;SDS011;4024;52.172;5.378;2023-08-07T09:58:27;10.77;;;3.80;;
7957;SDS011;4024;52.172;5.378;2023-08-07T10:00:53;9.57;;;3.30;;
7957;SDS011;4024;52.172;5.378;2023-08-07T10:03:21;8.53;;;3.57;;
7957;SDS011;4024;52.172;5.378;2023-08-07T10:05:48;7.00;;;3.03;;
7957;SDS011;4024;52.172;5.378;2023-08-07T10:08:14;9.67;;;3.20;;
7957;SDS011;4024;52.172;5.378;2023-08-07T10:10:40;9.40;;;3.33;;
7957;SDS011;4024;52.172;5.378;2023-08-07T10:13:06;11.50;;;3.30;;
7957;SDS011;4024;52.172;5.378;2023-08-07T10:15:32;8.13;;;2.90;;
7957;SDS011;4024;52.172;5.378;2023-08-07T10:17:59;11.90;;;3.57;;
7957;SDS011;4024;52.172;5.378;2023-08-07T10:20:29;5.37;;;3.07;;
7957;SDS011;4024;52.172;5.378;2023-08-07T10:23:03;8.40;;;3.27;;
7957;SDS011;4024;52.172;5.378;2023-08-07T10:25:32;8.00;;;3.40;;
7957;SDS011;4024;52.172;5.378;2023-08-07T10:27:59;8.33;;;3.60;;
7957;SDS011;4024;52.172;5.378;2023-08-07T10:30:26;6.60;;;3.33;;
7957;SDS011;4024;52.172;5.378;2023-08-07T10:32:54;6.23;;;2.93;;
7957;SDS011;4024;52.172;5.378;2023-08-07T10:35:24;7.93;;;3.47;;
7957;SDS011;4024;52.172;5.378;2023-08-07T10:38:04;6.67;;;3.27;;
7957;SDS011;4024;52.172;5.378;2023-08-07T10:40:34;10.03;;;3.60;;
7957;SDS011;4024;52.172;5.378;2023-08-07T10:43:19;8.10;;;3.13;;
7957;SDS011;4024;52.172;5.378;2023-08-07T10:45:45;10.63;;;3.43;;
7957;SDS011;4024;52.172;5.378;2023-08-07T10:48:11;8.10;;;3.43;;
7957;SDS011;4024;52.172;5.378;2023-08-07T10:50:50;8.27;;;3.33;;
7957;SDS011;4024;52.172;5.378;2023-08-07T10:53:31;7.83;;;3.73;;
7957;SDS011;4024;52.172;5.378;2023-08-07T10:55:57;9.27;;;4.10;;
7957;SDS011;4024;52.172;5.378;2023-08-07T10:58:28;8.53;;;3.93;;
7957;SDS011;4024;52.172;5.378;2023-08-07T11:03:56;5.57;;;3.00;;
7957;SDS011;4024;52.172;5.378;2023-08-07T11:06:23;8.27;;;3.27;;
7957;SDS011;4024;52.172;5.378;2023-08-07T11:08:53;10.27;;;3.47;;
7957;SDS011;4024;52.172;5.378;2023-08-07T11:11:19;5.60;;;3.00;;
7957;SDS011;4024;52.172;5.378;2023-08-07T11:13:45;6.03;;;3.13;;
7957;SDS011;4024;52.172;5.378;2023-08-07T11:16:11;5.87;;;2.80;;
7957;SDS011;4024;52.172;5.378;2023-08-07T11:18:36;9.40;;;3.03;;
7957;SDS011;4024;52.172;5.378;2023-08-07T11:21:06;6.37;;;3.27;;
7957;SDS011;4024;52.172;5.378;2023-08-07T11:23:36;8.87;;;3.50;;
7957;SDS011;4024;52.172;5.378;2023-08-07T11:26:02;8.83;;;2.80;;
7957;SDS011;4024;52.172;5.378;2023-08-07T11:28:28;9.23;;;3.10;;
7957;SDS011;4024;52.172;5.378;2023-08-07T11:30:54;7.43;;;3.13;;
7957;SDS011;4024;52.172;5.378;2023-08-07T11:33:24;12.90;;;3.83;;
7957;SDS011;4024;52.172;5.378;2023-08-07T11:35:51;7.97;;;3.77;;
7957;SDS011;4024;52.172;5.378;2023-08-07T11:41:00;8.33;;;3.10;;
7957;SDS011;4024;52.172;5.378;2023-08-07T11:43:27;8.73;;;3.87;;
7957;SDS011;4024;52.172;5.378;2023-08-07T11:45:55;7.53;;;3.20;;
7957;SDS011;4024;52.172;5.378;2023-08-07T11:48:26;8.03;;;3.60;;
7957;SDS011;4024;52.172;5.378;2023-08-07T11:50:53;7.23;;;3.13;;
7957;SDS011;4024;52.172;5.378;2023-08-07T11:53:23;15.50;;;3.50;;
7957;SDS011;4024;52.172;5.378;2023-08-07T11:55:54;7.93;;;3.33;;
7957;SDS011;4024;52.172;5.378;2023-08-07T11:58:21;6.40;;;3.23;;
7957;SDS011;4024;52.172;5.378;2023-08-07T12:00:48;9.50;;;2.93;;
7957;SDS011;4024;52.172;5.378;2023-08-07T12:03:27;5.67;;;3.47;;
7957;SDS011;4024;52.172;5.378;2023-08-07T12:05:55;9.83;;;3.23;;
7957;SDS011;4024;52.172;5.378;2023-08-07T12:08:22;9.10;;;3.03;;
7957;SDS011;4024;52.172;5.378;2023-08-07T12:10:51;6.77;;;3.00;;
7957;SDS011;4024;52.172;5.378;2023-08-07T12:13:19;7.97;;;3.30;;
7957;SDS011;4024;52.172;5.378;2023-08-07T12:15:50;11.07;;;3.20;;
7957;SDS011;4024;52.172;5.378;2023-08-07T12:18:18;8.30;;;3.33;;
7957;SDS011;4024;52.172;5.378;2023-08-07T12:20:45;8.97;;;3.27;;
7957;SDS011;4024;52.172;5.378;2023-08-07T12:23:13;4.73;;;2.73;;
7957;SDS011;4024;52.172;5.378;2023-08-07T12:25:41;6.80;;;2.87;;
7957;SDS011;4024;52.172;5.378;2023-08-07T12:28:07;6.77;;;2.80;;
7957;SDS011;4024;52.172;5.378;2023-08-07T12:30:38;5.20;;;2.70;;
7957;SDS011;4024;52.172;5.378;2023-08-07T12:33:04;7.43;;;2.80;;
7957;SDS011;4024;52.172;5.378;2023-08-07T12:35:30;4.40;;;2.50;;
7957;SDS011;4024;52.172;5.378;2023-08-07T12:37:56;4.47;;;2.30;;
7957;SDS011;4024;52.172;5.378;2023-08-07T12:40:22;5.63;;;2.80;;
7957;SDS011;4024;52.172;5.378;2023-08-07T12:42:48;3.27;;;2.50;;
7957;SDS011;4024;52.172;5.378;2023-08-07T12:45:14;9.13;;;2.70;;
7957;SDS011;4024;52.172;5.378;2023-08-07T12:47:41;3.43;;;2.40;;
7957;SDS011;4024;52.172;5.378;2023-08-07T12:50:07;3.90;;;2.20;;
7957;SDS011;4024;52.172;5.378;2023-08-07T12:52:34;4.73;;;2.60;;
7957;SDS011;4024;52.172;5.378;2023-08-07T12:55:00;3.87;;;2.30;;
7957;SDS011;4024;52.172;5.378;2023-08-07T12:57:26;4.13;;;2.13;;
7957;SDS011;4024;52.172;5.378;2023-08-07T12:59:51;4.37;;;2.30;;
7957;SDS011;4024;52.172;5.378;2023-08-07T13:02:17;5.50;;;2.70;;
7957;SDS011;4024;52.172;5.378;2023-08-07T13:04:43;5.97;;;2.47;;
7957;SDS011;4024;52.172;5.378;2023-08-07T13:07:08;5.03;;;2.73;;
7957;SDS011;4024;52.172;5.378;2023-08-07T13:09:34;9.67;;;2.70;;
7957;SDS011;4024;52.172;5.378;2023-08-07T13:11:59;7.07;;;2.50;;
7957;SDS011;4024;52.172;5.378;2023-08-07T13:14:25;4.23;;;2.40;;
7957;SDS011;4024;52.172;5.378;2023-08-07T13:16:51;7.20;;;2.50;;
7957;SDS011;4024;52.172;5.378;2023-08-07T13:19:16;8.27;;;2.67;;
7957;SDS011;4024;52.172;5.378;2023-08-07T13:21:42;3.10;;;2.50;;
7957;SDS011;4024;52.172;5.378;2023-08-07T13:24:08;4.03;;;2.60;;
7957;SDS011;4024;52.172;5.378;2023-08-07T13:26:34;6.63;;;2.70;;
7957;SDS011;4024;52.172;5.378;2023-08-07T13:28:59;3.13;;;2.50;;
7957;SDS011;4024;52.172;5.378;2023-08-07T13:31:25;5.80;;;2.50;;
7957;SDS011;4024;52.172;5.378;2023-08-07T13:33:50;4.87;;;2.50;;
7957;SDS011;4024;52.172;5.378;2023-08-07T13:36:16;5.87;;;2.77;;
7957;SDS011;4024;52.172;5.378;2023-08-07T13:38:41;5.90;;;2.90;;
7957;SDS011;4024;52.172;5.378;2023-08-07T13:41:08;5.07;;;2.20;;
7957;SDS011;4024;52.172;5.378;2023-08-07T13:43:33;2.73;;;1.97;;
7957;SDS011;4024;52.172;5.378;2023-08-07T13:45:59;5.60;;;2.30;;
7957;SDS011;4024;52.172;5.378;2023-08-07T13:48:24;4.57;;;2.40;;
7957;SDS011;4024;52.172;5.378;2023-08-07T13:50:53;5.67;;;2.50;;
7957;SDS011;4024;52.172;5.378;2023-08-07T13:53:19;6.20;;;2.30;;
7957;SDS011;4024;52.172;5.378;2023-08-07T13:55:46;6.43;;;2.70;;
7957;SDS011;4024;52.172;5.378;2023-08-07T13:58:12;3.57;;;2.30;;
7957;SDS011;4024;52.172;5.378;2023-08-07T14:00:40;4.17;;;2.33;;
7957;SDS011;4024;52.172;5.378;2023-08-07T14:03:06;3.00;;;1.90;;
7957;SDS011;4024;52.172;5.378;2023-08-07T14:05:33;4.70;;;2.00;;
7957;SDS011;4024;52.172;5.378;2023-08-07T14:07:59;3.57;;;2.17;;
7957;SDS011;4024;52.172;5.378;2023-08-07T14:10:24;4.53;;;2.33;;
7957;SDS011;4024;52.172;5.378;2023-08-07T14:12:50;4.27;;;2.20;;
7957;SDS011;4024;52.172;5.378;2023-08-07T14:15:16;4.63;;;2.43;;
7957;SDS011;4024;52.172;5.378;2023-08-07T14:17:41;3.23;;;2.30;;
7957;SDS011;4024;52.172;5.378;2023-08-07T14:20:07;5.40;;;2.13;;
7957;SDS011;4024;52.172;5.378;2023-08-07T14:22:33;6.93;;;2.60;;
7957;SDS011;4024;52.172;5.378;2023-08-07T14:25:01;5.47;;;2.47;;
7957;SDS011;4024;52.172;5.378;2023-08-07T14:27:28;4.43;;;2.13;;
7957;SDS011;4024;52.172;5.378;2023-08-07T14:29:53;4.57;;;2.40;;
7957;SDS011;4024;52.172;5.378;2023-08-07T14:32:19;4.93;;;2.17;;
7957;SDS011;4024;52.172;5.378;2023-08-07T14:34:44;2.97;;;2.20;;
7957;SDS011;4024;52.172;5.378;2023-08-07T14:37:12;4.23;;;2.50;;
7957;SDS011;4024;52.172;5.378;2023-08-07T14:39:38;8.57;;;2.60;;
7957;SDS011;4024;52.172;5.378;2023-08-07T14:42:04;4.67;;;2.33;;
7957;SDS011;4024;52.172;5.378;2023-08-07T14:44:29;4.40;;;2.17;;
7957;SDS011;4024;52.172;5.378;2023-08-07T14:46:55;5.40;;;3.00;;
7957;SDS011;4024;52.172;5.378;2023-08-07T14:49:20;7.40;;;2.73;;
7957;SDS011;4024;52.172;5.378;2023-08-07T14:51:46;5.33;;;2.83;;
7957;SDS011;4024;52.172;5.378;2023-08-07T14:54:11;4.07;;;2.73;;
7957;SDS011;4024;52.172;5.378;2023-08-07T14:56:37;4.50;;;2.53;;
7957;SDS011;4024;52.172;5.378;2023-08-07T14:59:03;2.57;;;2.03;;
7957;SDS011;4024;52.172;5.378;2023-08-07T15:01:28;5.13;;;2.53;;
7957;SDS011;4024;52.172;5.378;2023-08-07T15:03:54;3.17;;;2.30;;
7957;SDS011;4024;52.172;5.378;2023-08-07T15:06:19;3.93;;;2.60;;
7957;SDS011;4024;52.172;5.378;2023-08-07T15:08:46;7.90;;;3.17;;
7957;SDS011;4024;52.172;5.378;2023-08-07T15:11:12;3.27;;;2.40;;
7957;SDS011;4024;52.172;5.378;2023-08-07T15:13:39;5.23;;;2.27;;
7957;SDS011;4024;52.172;5.378;2023-08-07T15:16:05;5.90;;;2.87;;